sensor_id;sensor_type;location;lat;lon;timestamp;temperature;humidity
47921;DHT22;33686;48.770;9.186;2024-01-15T06:15:34;-0.10;99.90
47921;DHT22;33686;48.770;9.186;2024-01-15T06:18:00;-0.10;99.90
47921;DHT22;33686;48.770;9.186;2024-01-15T06:20:25;0.00;99.90
47921;DHT22;33686;48.770;9.186;2024-01-15T06:22:51;0.00;99.90
47921;DHT22;33686;48.770;9.186;2024-01-15T06:25:16;0.00;99.90
47921;DHT22;33686;48.770;9.186;2024-01-15T06:27:42;0.00;99.90
47921;DHT22;33686;48.770;9.186;2024-01-15T06:32:39;0.00;99.90
47921;DHT22;33686;48.770;9.186;2024-01-15T06:35:07;0.00;99.90
47921;DHT22;33686;48.770;9.186;2024-01-15T06:37:33;0.00;99.90
47921;DHT22;33686;48.770;9.186;2024-01-15T06:39:59;-0.10;99.90
47921;DHT22;33686;48.770;9.186;2024-01-15T06:42:24;-0.10;99.90
47921;DHT22;33686;48.770;9.186;2024-01-15T06:44:50;-0.10;99.90
47921;DHT22;33686;48.770;9.186;2024-01-15T06:47:16;0.00;99.90
47921;DHT22;33686;48.770;9.186;2024-01-15T06:49:43;0.00;99.90
47921;DHT22;33686;48.770;9.186;2024-01-15T06:52:08;0.00;99.90
47921;DHT22;33686;48.770;9.186;2024-01-15T06:54:34;-0.10;99.90
47921;DHT22;33686;48.770;9.186;2024-01-15T06:56:59;0.00;99.90
47921;DHT22;33686;48.770;9.186;2024-01-15T06:59:25;0.00;99.90
47921;DHT22;33686;48.770;9.186;2024-01-15T07:01:50;0.00;99.90
47921;DHT22;33686;48.770;9.186;2024-01-15T07:04:16;0.00;99.90
47921;DHT22;33686;48.770;9.186;2024-01-15T07:06:41;0.10;99.90
47921;DHT22;33686;48.770;9.186;2024-01-15T07:09:07;0.00;99.90
47921;DHT22;33686;48.770;9.186;2024-01-15T07:11:34;0.00;99.90
47921;DHT22;33686;48.770;9.186;2024-01-15T07:13:59;0.10;99.90
47921;DHT22;33686;48.770;9.186;2024-01-15T07:16:25;0.10;99.90
47921;DHT22;33686;48.770;9.186;2024-01-15T07:18:50;0.10;99.90
47921;DHT22;33686;48.770;9.186;2024-01-15T07:21:16;0.10;99.90
47921;DHT22;33686;48.770;9.186;2024-01-15T07:23:41;0.10;99.90
47921;DHT22;33686;48.770;9.186;2024-01-15T07:26:08;0.10;99.90
47921;DHT22;33686;48.770;9.186;2024-01-15T07:28:33;0.20;99.90
47921;DHT22;33686;48.770;9.186;2024-01-15T07:30:59;0.20;99.90
47921;DHT22;33686;48.770;9.186;2024-01-15T07:33:26;0.20;99.90
47921;DHT22;33686;48.770;9.186;2024-01-15T07:35:52;0.20;99.90
47921;DHT22;33686;48.770;9.186;2024-01-15T07:38:17;0.20;99.90
47921;DHT22;33686;48.770;9.186;2024-01-15T07:40:43;0.20;99.90
47921;DHT22;33686;48.770;9.186;2024-01-15T07:43:09;0.20;99.90
47921;DHT22;33686;48.770;9.186;2024-01-15T07:45:34;0.20;99.90
47921;DHT22;33686;48.770;9.186;2024-01-15T07:48:00;0.20;99.90
47921;DHT22;33686;48.770;9.186;2024-01-15T07:50:25;0.20;99.90
47921;DHT22;33686;48.770;9.186;2024-01-15T07:52:51;0.20;99.90
47921;DHT22;33686;48.770;9.186;2024-01-15T07:55:18;0.30;99.90
47921;DHT22;33686;48.770;9.186;2024-01-15T07:57:43;0.30;99.90
47921;DHT22;33686;48.770;9.186;2024-01-15T08:00:09;0.30;99.90
47921;DHT22;33686;48.770;9.186;2024-01-15T08:02:36;0.30;99.90
47921;DHT22;33686;48.770;9.186;2024-01-15T08:05:01;0.40;99.90
47921;DHT22;33686;48.770;9.186;2024-01-15T08:07:27;0.40;99.90
47921;DHT22;33686;48.770;9.186;2024-01-15T08:09:53;0.40;99.90
47921;DHT22;33686;48.770;9.186;2024-01-15T08:12:18;0.40;99.90
47921;DHT22;33686;48.770;9.186;2024-01-15T08:14:44;0.40;99.90
47921;DHT22;33686;48.770;9.186;2024-01-15T08:17:10;0.40;99.90
47921;DHT22;33686;48.770;9.186;2024-01-15T08:19:36;0.50;99.90
47921;DHT22;33686;48.770;9.186;2024-01-15T08:22:01;0.50;99.90
47921;DHT22;33686;48.770;9.186;2024-01-15T08:24:27;0.50;99.90
47921;DHT22;33686;48.770;9.186;2024-01-15T08:26:54;0.50;99.90
47921;DHT22;33686;48.770;9.186;2024-01-15T08:29:19;0.50;99.90
47921;DHT22;33686;48.770;9.186;2024-01-15T08:31:46;0.90;99.90
47921;DHT22;33686;48.770;9.186;2024-01-15T08:34:11;1.30;99.90
47921;DHT22;33686;48.770;9.186;2024-01-15T08:36:37;0.90;99.90
47921;DHT22;33686;48.770;9.186;2024-01-15T08:39:02;0.90;99.90
47921;DHT22;33686;48.770;9.186;2024-01-15T08:41:31;0.80;99.90
47921;DHT22;33686;48.770;9.186;2024-01-15T08:43:56;0.80;99.90
47921;DHT22;33686;48.770;9.186;2024-01-15T08:46:22;0.90;99.90
47921;DHT22;33686;48.770;9.186;2024-01-15T08:48:47;0.90;99.90
47921;DHT22;33686;48.770;9.186;2024-01-15T08:51:13;0.90;99.90
47921;DHT22;33686;48.770;9.186;2024-01-15T08:53:38;0.90;99.90
47921;DHT22;33686;48.770;9.186;2024-01-15T08:56:04;1.00;99.90
47921;DHT22;33686;48.770;9.186;2024-01-15T08:58:31;1.00;99.90
47921;DHT22;33686;48.770;9.186;2024-01-15T09:00:56;1.10;99.90
47921;DHT22;33686;48.770;9.186;2024-01-15T09:03:22;1.10;99.90
47921;DHT22;33686;48.770;9.186;2024-01-15T09:05:47;1.10;99.90
47921;DHT22;33686;48.770;9.186;2024-01-15T09:08:15;1.10;99.90
47921;DHT22;33686;48.770;9.186;2024-01-15T09:10:40;1.20;99.90
47921;DHT22;33686;48.770;9.186;2024-01-15T09:13:06;1.20;99.90
47921;DHT22;33686;48.770;9.186;2024-01-15T09:15:31;1.20;99.90
47921;DHT22;33686;48.770;9.186;2024-01-15T09:17:57;1.20;99.90
47921;DHT22;33686;48.770;9.186;2024-01-15T09:20:24;1.20;99.90
47921;DHT22;33686;48.770;9.186;2024-01-15T09:22:51;1.20;99.90
47921;DHT22;33686;48.770;9.186;2024-01-15T09:25:16;1.30;99.90
47921;DHT22;33686;48.770;9.186;2024-01-15T09:27:42;1.30;99.90
47921;DHT22;33686;48.770;9.186;2024-01-15T09:30:08;1.30;99.90
47921;DHT22;33686;48.770;9.186;2024-01-15T09:32:33;1.40;99.90
47921;DHT22;33686;48.770;9.186;2024-01-15T09:34:59;1.40;99.90
47921;DHT22;33686;48.770;9.186;2024-01-15T09:37:24;1.40;99.90
47921;DHT22;33686;48.770;9.186;2024-01-15T09:39:50;1.50;99.90
47921;DHT22;33686;48.770;9.186;2024-01-15T09:42:16;1.60;99.90
47921;DHT22;33686;48.770;9.186;2024-01-15T09:44:41;1.60;99.90
47921;DHT22;33686;48.770;9.186;2024-01-15T09:47:07;1.80;99.90
47921;DHT22;33686;48.770;9.186;2024-01-15T09:49:33;1.70;99.90
47921;DHT22;33686;48.770;9.186;2024-01-15T09:51:58;1.70;99.90
47921;DHT22;33686;48.770;9.186;2024-01-15T09:54:25;1.70;99.90
47921;DHT22;33686;48.770;9.186;2024-01-15T09:56:50;1.80;99.90
47921;DHT22;33686;48.770;9.186;2024-01-15T09:59:16;1.70;99.90
47921;DHT22;33686;48.770;9.186;2024-01-15T10:01:42;1.60;99.90
47921;DHT22;33686;48.770;9.186;2024-01-15T10:04:09;1.60;99.90
47921;DHT22;33686;48.770;9.186;2024-01-15T10:06:35;1.70;99.90
47921;DHT22;33686;48.770;9.186;2024-01-15T10:09:01;1.70;99.90
47921;DHT22;33686;48.770;9.186;2024-01-15T10:11:26;1.70;99.90
47921;DHT22;33686;48.770;9.186;2024-01-15T10:13:52;1.80;99.90
47921;DHT22;33686;48.770;9.186;2024-01-15T10:16:19;1.70;99.90
47921;DHT22;33686;48.770;9.186;2024-01-15T10:18:44;1.80;99.90
47921;DHT22;33686;48.770;9.186;2024-01-15T10:21:10;1.80;99.90
47921;DHT22;33686;48.770;9.186;2024-01-15T10:23:35;1.80;99.90
47921;DHT22;33686;48.770;9.186;2024-01-15T10:26:01;1.80;99.90
47921;DHT22;33686;48.770;9.186;2024-01-15T10:28:27;1.90;99.90
47921;DHT22;33686;48.770;9.186;2024-01-15T10:30:56;1.90;99.90
47921;DHT22;33686;48.770;9.186;2024-01-15T10:33:22;1.80;99.90
47921;DHT22;33686;48.770;9.186;2024-01-15T10:35:53;1.80;99.90
47921;DHT22;33686;48.770;9.186;2024-01-15T10:38:19;1.80;99.90
47921;DHT22;33686;48.770;9.186;2024-01-15T10:40:53;1.80;99.90
47921;DHT22;33686;48.770;9.186;2024-01-15T10:43:19;1.90;99.90
47921;DHT22;33686;48.770;9.186;2024-01-15T10:45:48;1.90;99.90
47921;DHT22;33686;48.770;9.186;2024-01-15T10:48:14;2.00;99.90
47921;DHT22;33686;48.770;9.186;2024-01-15T10:50:41;2.00;99.90
47921;DHT22;33686;48.770;9.186;2024-01-15T10:53:07;1.90;99.90
47921;DHT22;33686;48.770;9.186;2024-01-15T10:55:33;2.00;99.90
47921;DHT22;33686;48.770;9.186;2024-01-15T10:58:00;2.00;99.90
47921;DHT22;33686;48.770;9.186;2024-01-15T11:00:26;2.00;99.90
47921;DHT22;33686;48.770;9.186;2024-01-15T11:02:52;2.10;99.90
47921;DHT22;33686;48.770;9.186;2024-01-15T11:05:21;2.10;99.90
47921;DHT22;33686;48.770;9.186;2024-01-15T11:07:50;2.10;99.90
47921;DHT22;33686;48.770;9.186;2024-01-15T11:13:05;2.30;99.90
47921;DHT22;33686;48.770;9.186;2024-01-15T11:15:33;2.30;99.90
47921;DHT22;33686;48.770;9.186;2024-01-15T11:18:18;2.30;99.90
47921;DHT22;33686;48.770;9.186;2024-01-15T11:28:57;2.20;99.90
47921;DHT22;33686;48.770;9.186;2024-01-15T11:31:55;2.10;99.90
47921;DHT22;33686;48.770;9.186;2024-01-15T11:34:12;2.10;99.90
47921;DHT22;33686;48.770;9.186;2024-01-15T11:42:02;2.00;99.90
47921;DHT22;33686;48.770;9.186;2024-01-15T11:44:28;2.10;99.90
47921;DHT22;33686;48.770;9.186;2024-01-15T11:49:25;2.00;99.90
47921;DHT22;33686;48.770;9.186;2024-01-15T11:51:54;2.00;99.90
47921;DHT22;33686;48.770;9.186;2024-01-15T11:54:20;1.90;99.90
47921;DHT22;33686;48.770;9.186;2024-01-15T11:56:48;1.80;99.90
47921;DHT22;33686;48.770;9.186;2024-01-15T11:59:14;1.80;99.90
47921;DHT22;33686;48.770;9.186;2024-01-15T12:01:39;1.80;99.90
47921;DHT22;33686;48.770;9.186;2024-01-15T12:04:05;1.70;99.90
47921;DHT22;33686;48.770;9.186;2024-01-15T12:06:31;1.70;99.90
47921;DHT22;33686;48.770;9.186;2024-01-15T12:09:09;1.60;99.90
47921;DHT22;33686;48.770;9.186;2024-01-15T12:11:37;1.70;99.90
47921;DHT22;33686;48.770;9.186;2024-01-15T12:14:04;1.70;99.90
47921;DHT22;33686;48.770;9.186;2024-01-15T12:16:29;1.70;99.90
47921;DHT22;33686;48.770;9.186;2024-01-15T12:18:55;1.70;99.90
47921;DHT22;33686;48.770;9.186;2024-01-15T12:21:21;1.60;99.90
47921;DHT22;33686;48.770;9.186;2024-01-15T12:23:46;1.60;99.90
47921;DHT22;33686;48.770;9.186;2024-01-15T12:26:13;1.50;99.90
47921;DHT22;33686;48.770;9.186;2024-01-15T12:28:39;1.50;99.90
47921;DHT22;33686;48.770;9.186;2024-01-15T12:31:05;1.30;99.90
47921;DHT22;33686;48.770;9.186;2024-01-15T12:33:30;1.20;99.90
47921;DHT22;33686;48.770;9.186;2024-01-15T12:35:56;1.60;99.90
47921;DHT22;33686;48.770;9.186;2024-01-15T12:38:21;1.40;99.90
47921;DHT22;33686;48.770;9.186;2024-01-15T12:40:47;1.30;99.90
47921;DHT22;33686;48.770;9.186;2024-01-15T12:43:13;1.20;99.90
47921;DHT22;33686;48.770;9.186;2024-01-15T12:45:39;1.10;99.90
47921;DHT22;33686;48.770;9.186;2024-01-15T12:48:05;1.00;99.90
47921;DHT22;33686;48.770;9.186;2024-01-15T12:50:31;1.00;99.90
47921;DHT22;33686;48.770;9.186;2024-01-15T12:52:58;0.90;99.90
47921;DHT22;33686;48.770;9.186;2024-01-15T12:55:25;1.00;99.90
47921;DHT22;33686;48.770;9.186;2024-01-15T12:57:50;0.90;99.90
47921;DHT22;33686;48.770;9.186;2024-01-15T13:00:19;1.00;99.90
47921;DHT22;33686;48.770;9.186;2024-01-15T13:02:45;0.90;99.90
47921;DHT22;33686;48.770;9.186;2024-01-15T13:05:11;1.10;99.90
47921;DHT22;33686;48.770;9.186;2024-01-15T13:07:37;1.10;99.90
47921;DHT22;33686;48.770;9.186;2024-01-15T13:10:02;1.20;99.90
47921;DHT22;33686;48.770;9.186;2024-01-15T13:12:28;1.20;99.90
47921;DHT22;33686;48.770;9.186;2024-01-15T13:14:54;1.20;99.90
47921;DHT22;33686;48.770;9.186;2024-01-15T13:17:19;1.20;99.90
47921;DHT22;33686;48.770;9.186;2024-01-15T13:19:46;1.20;99.90
47921;DHT22;33686;48.770;9.186;2024-01-15T13:22:12;1.10;99.90
47921;DHT22;33686;48.770;9.186;2024-01-15T13:24:39;1.10;99.90
47921;DHT22;33686;48.770;9.186;2024-01-15T13:27:05;1.10;99.90
47921;DHT22;33686;48.770;9.186;2024-01-15T13:29:31;1.00;99.90
47921;DHT22;33686;48.770;9.186;2024-01-15T13:31:57;1.00;99.90
47921;DHT22;33686;48.770;9.186;2024-01-15T13:34:23;1.00;99.90
47921;DHT22;33686;48.770;9.186;2024-01-15T13:36:49;1.00;99.90
47921;DHT22;33686;48.770;9.186;2024-01-15T13:39:18;1.00;99.90
47921;DHT22;33686;48.770;9.186;2024-01-15T13:41:46;1.10;99.90
47921;DHT22;33686;48.770;9.186;2024-01-15T13:44:11;1.10;99.90
47921;DHT22;33686;48.770;9.186;2024-01-15T13:46:37;1.00;99.90
47921;DHT22;33686;48.770;9.186;2024-01-15T13:49:03;1.00;99.90
47921;DHT22;33686;48.770;9.186;2024-01-15T13:51:31;1.00;99.90
47921;DHT22;33686;48.770;9.186;2024-01-15T13:53:57;1.10;99.90
47921;DHT22;33686;48.770;9.186;2024-01-15T13:56:23;1.30;99.90
47921;DHT22;33686;48.770;9.186;2024-01-15T13:58:48;1.20;99.90
47921;DHT22;33686;48.770;9.186;2024-01-15T14:01:15;1.10;99.90
47921;DHT22;33686;48.770;9.186;2024-01-15T14:03:41;1.00;99.90
47921;DHT22;33686;48.770;9.186;2024-01-15T14:06:06;1.00;99.90
47921;DHT22;33686;48.770;9.186;2024-01-15T14:08:37;1.00;99.90
47921;DHT22;33686;48.770;9.186;2024-01-15T14:11:03;1.00;99.90
47921;DHT22;33686;48.770;9.186;2024-01-15T14:13:29;1.00;99.90
47921;DHT22;33686;48.770;9.186;2024-01-15T14:15:54;1.00;99.90
47921;DHT22;33686;48.770;9.186;2024-01-15T14:18:21;1.00;99.90
47921;DHT22;33686;48.770;9.186;2024-01-15T14:20:46;1.00;99.90
47921;DHT22;33686;48.770;9.186;2024-01-15T14:23:12;1.00;99.90
47921;DHT22;33686;48.770;9.186;2024-01-15T14:25:38;0.90;99.90
47921;DHT22;33686;48.770;9.186;2024-01-15T14:28:04;1.00;99.90
47921;DHT22;33686;48.770;9.186;2024-01-15T14:30:30;1.00;99.90
47921;DHT22;33686;48.770;9.186;2024-01-15T14:32:55;0.90;99.90
47921;DHT22;33686;48.770;9.186;2024-01-15T14:35:21;1.00;99.90
47921;DHT22;33686;48.770;9.186;2024-01-15T14:37:46;0.90;99.90
47921;DHT22;33686;48.770;9.186;2024-01-15T14:40:13;0.90;99.90
47921;DHT22;33686;48.770;9.186;2024-01-15T14:42:41;0.90;99.90
47921;DHT22;33686;48.770;9.186;2024-01-15T14:45:07;1.00;99.90
47921;DHT22;33686;48.770;9.186;2024-01-15T14:47:38;0.90;99.90
47921;DHT22;33686;48.770;9.186;2024-01-15T14:50:07;0.90;99.90
47921;DHT22;33686;48.770;9.186;2024-01-15T14:52:33;0.80;99.90
47921;DHT22;33686;48.770;9.186;2024-01-15T14:54:59;0.80;99.90
47921;DHT22;33686;48.770;9.186;2024-01-15T14:57:25;0.80;99.90
47921;DHT22;33686;48.770;9.186;2024-01-15T14:59:50;0.70;99.90
47921;DHT22;33686;48.770;9.186;2024-01-15T15:02:16;0.70;99.90
47921;DHT22;33686;48.770;9.186;2024-01-15T15:04:43;0.60;99.90
47921;DHT22;33686;48.770;9.186;2024-01-15T15:07:08;0.60;99.90
47921;DHT22;33686;48.770;9.186;2024-01-15T15:09:34;0.60;99.90
47921;DHT22;33686;48.770;9.186;2024-01-15T15:11:59;0.60;99.90
47921;DHT22;33686;48.770;9.186;2024-01-15T15:14:25;0.60;99.90
47921;DHT22;33686;48.770;9.186;2024-01-15T15:16:51;0.60;99.90
47921;DHT22;33686;48.770;9.186;2024-01-15T15:19:17;0.60;99.90
47921;DHT22;33686;48.770;9.186;2024-01-15T15:21:44;0.60;99.90
47921;DHT22;33686;48.770;9.186;2024-01-15T15:24:09;0.60;99.90
47921;DHT22;33686;48.770;9.186;2024-01-15T15:26:35;0.60;99.90
47921;DHT22;33686;48.770;9.186;2024-01-15T15:29:02;0.60;99.90
47921;DHT22;33686;48.770;9.186;2024-01-15T15:31:27;0.70;99.90
47921;DHT22;33686;48.770;9.186;2024-01-15T15:33:53;0.70;99.90
47921;DHT22;33686;48.770;9.186;2024-01-15T15:36:19;0.70;99.90
47921;DHT22;33686;48.770;9.186;2024-01-15T15:38:44;0.60;99.90
47921;DHT22;33686;48.770;9.186;2024-01-15T15:41:10;0.60;99.90
47921;DHT22;33686;48.770;9.186;2024-01-15T15:43:35;0.60;99.90
47921;DHT22;33686;48.770;9.186;2024-01-15T15:46:01;0.70;99.90
47921;DHT22;33686;48.770;9.186;2024-01-15T15:48:26;0.70;99.90
47921;DHT22;33686;48.770;9.186;2024-01-15T15:50:52;0.70;99.90
47921;DHT22;33686;48.770;9.186;2024-01-15T15:53:20;0.70;99.90
47921;DHT22;33686;48.770;9.186;2024-01-15T15:55:47;0.60;99.90
47921;DHT22;33686;48.770;9.186;2024-01-15T15:58:13;0.60;99.90
47921;DHT22;33686;48.770;9.186;2024-01-15T16:00:38;0.60;99.90
47921;DHT22;33686;48.770;9.186;2024-01-15T16:03:04;0.60;99.90
47921;DHT22;33686;48.770;9.186;2024-01-15T16:05:29;0.60;99.90
47921;DHT22;33686;48.770;9.186;2024-01-15T16:07:55;0.60;99.90
47921;DHT22;33686;48.770;9.186;2024-01-15T16:10:20;0.60;99.90
47921;DHT22;33686;48.770;9.186;2024-01-15T16:12:46;0.60;99.90
47921;DHT22;33686;48.770;9.186;2024-01-15T16:15:18;0.60;99.90
47921;DHT22;33686;48.770;9.186;2024-01-15T16:17:45;0.60;99.90
47921;DHT22;33686;48.770;9.186;2024-01-15T16:20:10;0.60;99.90
47921;DHT22;33686;48.770;9.186;2024-01-15T16:22:36;0.60;99.90
47921;DHT22;33686;48.770;9.186;2024-01-15T16:25:01;0.60;99.90
47921;DHT22;33686;48.770;9.186;2024-01-15T16:27:27;0.50;99.90
47921;DHT22;33686;48.770;9.186;2024-01-15T16:29:52;0.50;99.90
47921;DHT22;33686;48.770;9.186;2024-01-15T16:32:18;0.50;99.90
47921;DHT22;33686;48.770;9.186;2024-01-15T16:34:44;0.50;99.90
47921;DHT22;33686;48.770;9.186;2024-01-15T16:37:09;0.50;99.90
47921;DHT22;33686;48.770;9.186;2024-01-15T16:39:35;0.50;99.90
47921;DHT22;33686;48.770;9.186;2024-01-15T16:42:00;0.50;99.90
47921;DHT22;33686;48.770;9.186;2024-01-15T16:44:26;0.50;99.90
47921;DHT22;33686;48.770;9.186;2024-01-15T16:46:51;0.50;99.90
47921;DHT22;33686;48.770;9.186;2024-01-15T16:49:17;0.40;99.90
47921;DHT22;33686;48.770;9.186;2024-01-15T16:51:42;0.40;99.90
47921;DHT22;33686;48.770;9.186;2024-01-15T16:54:08;0.40;99.90
47921;DHT22;33686;48.770;9.186;2024-01-15T16:56:33;0.40;99.90
47921;DHT22;33686;48.770;9.186;2024-01-15T16:58:59;0.40;99.90
47921;DHT22;33686;48.770;9.186;2024-01-15T17:01:24;0.50;99.90
47921;DHT22;33686;48.770;9.186;2024-01-15T17:03:50;0.40;99.90
47921;DHT22;33686;48.770;9.186;2024-01-15T17:06:17;0.40;99.90
47921;DHT22;33686;48.770;9.186;2024-01-15T17:08:43;0.40;99.90
47921;DHT22;33686;48.770;9.186;2024-01-15T17:11:08;0.40;99.90
47921;DHT22;33686;48.770;9.186;2024-01-15T17:13:34;0.40;99.90
47921;DHT22;33686;48.770;9.186;2024-01-15T17:16:00;0.40;99.90
47921;DHT22;33686;48.770;9.186;2024-01-15T17:18:25;0.30;99.90
47921;DHT22;33686;48.770;9.186;2024-01-15T17:20:51;0.30;99.90
47921;DHT22;33686;48.770;9.186;2024-01-15T17:23:16;0.30;99.90
47921;DHT22;33686;48.770;9.186;2024-01-15T17:25:43;0.30;99.90
47921;DHT22;33686;48.770;9.186;2024-01-15T17:28:09;0.30;99.90
47921;DHT22;33686;48.770;9.186;2024-01-15T17:30:34;0.30;99.90
47921;DHT22;33686;48.770;9.186;2024-01-15T17:33:00;0.30;99.90
47921;DHT22;33686;48.770;9.186;2024-01-15T17:35:25;0.30;99.90
47921;DHT22;33686;48.770;9.186;2024-01-15T17:37:51;0.30;99.90
47921;DHT22;33686;48.770;9.186;2024-01-15T17:40:16;0.30;99.90
47921;DHT22;33686;48.770;9.186;2024-01-15T17:42:42;0.30;99.90
47921;DHT22;33686;48.770;9.186;2024-01-15T17:45:08;0.30;99.90
47921;DHT22;33686;48.770;9.186;2024-01-15T17:47:33;0.30;99.90
47921;DHT22;33686;48.770;9.186;2024-01-15T17:49:59;0.30;99.90
47921;DHT22;33686;48.770;9.186;2024-01-15T17:52:24;0.30;99.90
47921;DHT22;33686;48.770;9.186;2024-01-15T17:54:50;0.30;99.90
47921;DHT22;33686;48.770;9.186;2024-01-15T17:57:15;0.30;99.90
47921;DHT22;33686;48.770;9.186;2024-01-15T17:59:41;0.30;99.90
47921;DHT22;33686;48.770;9.186;2024-01-15T18:02:07;0.30;99.90
47921;DHT22;33686;48.770;9.186;2024-01-15T18:04:32;0.30;99.90
47921;DHT22;33686;48.770;9.186;2024-01-15T18:06:58;0.30;99.90
47921;DHT22;33686;48.770;9.186;2024-01-15T18:09:23;0.30;99.90
47921;DHT22;33686;48.770;9.186;2024-01-15T18:11:49;0.30;99.90
47921;DHT22;33686;48.770;9.186;2024-01-15T18:14:14;0.20;99.90
47921;DHT22;33686;48.770;9.186;2024-01-15T18:16:40;0.10;99.90
47921;DHT22;33686;48.770;9.186;2024-01-15T18:19:06;0.00;99.90
47921;DHT22;33686;48.770;9.186;2024-01-15T18:21:31;0.00;99.90
47921;DHT22;33686;48.770;9.186;2024-01-15T18:23:57;0.00;99.90
47921;DHT22;33686;48.770;9.186;2024-01-15T18:26:23;0.00;99.90
47921;DHT22;33686;48.770;9.186;2024-01-15T18:28:48;-0.10;99.90
47921;DHT22;33686;48.770;9.186;2024-01-15T18:31:14;-0.10;99.90
47921;DHT22;33686;48.770;9.186;2024-01-15T18:33:39;-0.20;99.90
47921;DHT22;33686;48.770;9.186;2024-01-15T18:36:05;-0.20;99.90
47921;DHT22;33686;48.770;9.186;2024-01-15T18:38:33;-0.20;99.90
47921;DHT22;33686;48.770;9.186;2024-01-15T18:41:02;-0.30;99.90
47921;DHT22;33686;48.770;9.186;2024-01-15T18:43:29;-0.30;99.90
47921;DHT22;33686;48.770;9.186;2024-01-15T18:45:55;-0.30;99.90
47921;DHT22;33686;48.770;9.186;2024-01-15T18:48:20;-0.30;99.90
47921;DHT22;33686;48.770;9.186;2024-01-15T18:50:46;-0.20;99.90
47921;DHT22;33686;48.770;9.186;2024-01-15T18:53:11;-0.20;99.90
47921;DHT22;33686;48.770;9.186;2024-01-15T18:55:37;-0.20;99.90
47921;DHT22;33686;48.770;9.186;2024-01-15T18:58:03;-0.20;99.90
47921;DHT22;33686;48.770;9.186;2024-01-15T19:00:28;-0.10;99.90
47921;DHT22;33686;48.770;9.186;2024-01-15T19:02:54;-0.10;99.90
47921;DHT22;33686;48.770;9.186;2024-01-15T19:05:26;-0.10;99.90
47921;DHT22;33686;48.770;9.186;2024-01-15T19:07:52;-0.10;99.90
47921;DHT22;33686;48.770;9.186;2024-01-15T19:10:18;-0.10;99.90
47921;DHT22;33686;48.770;9.186;2024-01-15T19:12:43;-0.10;99.90
47921;DHT22;33686;48.770;9.186;2024-01-15T19:15:09;-0.10;99.90
47921;DHT22;33686;48.770;9.186;2024-01-15T19:17:35;0.00;99.90
47921;DHT22;33686;48.770;9.186;2024-01-15T19:20:00;0.00;99.90
47921;DHT22;33686;48.770;9.186;2024-01-15T19:22:26;0.00;99.90
47921;DHT22;33686;48.770;9.186;2024-01-15T19:24:52;0.00;99.90
47921;DHT22;33686;48.770;9.186;2024-01-15T19:27:17;0.00;99.90
47921;DHT22;33686;48.770;9.186;2024-01-15T19:29:43;0.10;99.90
47921;DHT22;33686;48.770;9.186;2024-01-15T19:32:09;0.10;99.90
47921;DHT22;33686;48.770;9.186;2024-01-15T19:34:37;0.10;99.90
47921;DHT22;33686;48.770;9.186;2024-01-15T19:37:03;0.00;99.90
47921;DHT22;33686;48.770;9.186;2024-01-15T19:39:30;0.10;99.90
47921;DHT22;33686;48.770;9.186;2024-01-15T19:41:58;0.00;99.90
47921;DHT22;33686;48.770;9.186;2024-01-15T19:44:24;0.10;99.90
47921;DHT22;33686;48.770;9.186;2024-01-15T19:46:49;0.20;99.90
47921;DHT22;33686;48.770;9.186;2024-01-15T19:49:15;0.10;99.90
47921;DHT22;33686;48.770;9.186;2024-01-15T19:51:41;0.10;99.90
47921;DHT22;33686;48.770;9.186;2024-01-15T19:54:06;0.10;99.90
47921;DHT22;33686;48.770;9.186;2024-01-15T19:56:31;0.10;99.90
47921;DHT22;33686;48.770;9.186;2024-01-15T19:58:59;0.10;99.90
47921;DHT22;33686;48.770;9.186;2024-01-15T20:01:24;0.10;99.90
47921;DHT22;33686;48.770;9.186;2024-01-15T20:03:51;0.10;99.90
47921;DHT22;33686;48.770;9.186;2024-01-15T20:06:16;0.10;99.90
47921;DHT22;33686;48.770;9.186;2024-01-15T20:08:44;0.10;99.90
47921;DHT22;33686;48.770;9.186;2024-01-15T20:11:13;0.10;99.90
47921;DHT22;33686;48.770;9.186;2024-01-15T20:13:39;0.10;99.90
47921;DHT22;33686;48.770;9.186;2024-01-15T20:16:05;0.10;99.90
47921;DHT22;33686;48.770;9.186;2024-01-15T20:18:31;0.10;99.90
47921;DHT22;33686;48.770;9.186;2024-01-15T20:20:57;0.10;99.90
47921;DHT22;33686;48.770;9.186;2024-01-15T20:23:22;0.10;99.90
47921;DHT22;33686;48.770;9.186;2024-01-15T20:25:48;0.10;99.90
47921;DHT22;33686;48.770;9.186;2024-01-15T20:28:14;0.10;99.90
47921;DHT22;33686;48.770;9.186;2024-01-15T20:30:40;0.10;99.90
47921;DHT22;33686;48.770;9.186;2024-01-15T20:33:05;0.00;99.90
47921;DHT22;33686;48.770;9.186;2024-01-15T20:35:31;0.10;99.90
47921;DHT22;33686;48.770;9.186;2024-01-15T20:37:57;0.00;99.90
47921;DHT22;33686;48.770;9.186;2024-01-15T20:40:22;0.00;99.90
47921;DHT22;33686;48.770;9.186;2024-01-15T20:42:48;0.00;99.90
47921;DHT22;33686;48.770;9.186;2024-01-15T20:45:14;0.00;99.90
47921;DHT22;33686;48.770;9.186;2024-01-15T20:47:40;0.00;99.90
47921;DHT22;33686;48.770;9.186;2024-01-15T20:50:05;0.00;99.90
47921;DHT22;33686;48.770;9.186;2024-01-15T20:52:32;0.00;99.90
47921;DHT22;33686;48.770;9.186;2024-01-15T20:54:57;0.00;99.90
47921;DHT22;33686;48.770;9.186;2024-01-15T20:57:23;0.00;99.90
47921;DHT22;33686;48.770;9.186;2024-01-15T20:59:48;0.00;99.90
47921;DHT22;33686;48.770;9.186;2024-01-15T21:02:14;0.00;99.90
47921;DHT22;33686;48.770;9.186;2024-01-15T21:04:39;0.00;99.90
47921;DHT22;33686;48.770;9.186;2024-01-15T21:07:05;-0.10;99.90
47921;DHT22;33686;48.770;9.186;2024-01-15T21:09:32;0.00;99.90
47921;DHT22;33686;48.770;9.186;2024-01-15T21:11:58;0.00;99.90
47921;DHT22;33686;48.770;9.186;2024-01-15T21:14:23;0.00;99.90
47921;DHT22;33686;48.770;9.186;2024-01-15T21:16:49;0.00;99.90
47921;DHT22;33686;48.770;9.186;2024-01-15T21:19:14;0.00;99.90
47921;DHT22;33686;48.770;9.186;2024-01-15T21:21:40;-0.10;99.90
47921;DHT22;33686;48.770;9.186;2024-01-15T21:24:06;-0.10;99.90
47921;DHT22;33686;48.770;9.186;2024-01-15T21:26:31;-0.10;99.90
47921;DHT22;33686;48.770;9.186;2024-01-15T21:28:57;-0.10;99.90
47921;DHT22;33686;48.770;9.186;2024-01-15T21:31:23;-0.10;99.90
47921;DHT22;33686;48.770;9.186;2024-01-15T21:33:48;-0.10;99.90
47921;DHT22;33686;48.770;9.186;2024-01-15T21:36:14;-0.10;99.90
47921;DHT22;33686;48.770;9.186;2024-01-15T21:38:40;-0.10;99.90
47921;DHT22;33686;48.770;9.186;2024-01-15T21:41:05;-0.10;99.90
47921;DHT22;33686;48.770;9.186;2024-01-15T21:43:31;-0.20;99.90
47921;DHT22;33686;48.770;9.186;2024-01-15T21:45:57;-0.20;99.90
47921;DHT22;33686;48.770;9.186;2024-01-15T21:48:22;-0.20;99.90
47921;DHT22;33686;48.770;9.186;2024-01-15T21:50:48;-0.20;99.90
47921;DHT22;33686;48.770;9.186;2024-01-15T21:53:13;-0.20;99.90
47921;DHT22;33686;48.770;9.186;2024-01-15T21:55:42;-0.20;99.90
47921;DHT22;33686;48.770;9.186;2024-01-15T21:58:07;-0.20;99.90
47921;DHT22;33686;48.770;9.186;2024-01-15T22:00:34;-0.20;99.90
47921;DHT22;33686;48.770;9.186;2024-01-15T22:02:59;-0.20;99.90
47921;DHT22;33686;48.770;9.186;2024-01-15T22:05:25;-0.20;99.90
47921;DHT22;33686;48.770;9.186;2024-01-15T22:07:50;-0.20;99.90
47921;DHT22;33686;48.770;9.186;2024-01-15T22:10:16;-0.20;99.90
47921;DHT22;33686;48.770;9.186;2024-01-15T22:12:41;-0.20;99.90